sensor_id;sensor_type;location;lat;lon;timestamp;pressure;altitude;pressure_sealevel;temperature;humidity
50790;BME280;37287;47.554;7.844;2023-11-19T00:03:30;98128.91;;;5.19;100.00
50790;BME280;37287;47.554;7.844;2023-11-19T00:05:59;98130.00;;;5.18;100.00
50790;BME280;37287;47.554;7.844;2023-11-19T00:08:27;98119.63;;;5.16;100.00
50790;BME280;37287;47.554;7.844;2023-11-19T00:10:54;98124.31;;;5.20;100.00
50790;BME280;37287;47.554;7.844;2023-11-19T00:13:21;98114.34;;;5.20;100.00
50790;BME280;37287;47.554;7.844;2023-11-19T00:15:49;98112.13;;;5.22;100.00
50790;BME280;37287;47.554;7.844;2023-11-19T00:18:16;98114.81;;;5.22;100.00
50790;BME280;37287;47.554;7.844;2023-11-19T00:21:14;98121.75;;;5.23;100.00
50790;BME280;37287;47.554;7.844;2023-11-19T00:23:41;98117.94;;;5.24;100.00
50790;BME280;37287;47.554;7.844;2023-11-19T00:26:14;98100.72;;;5.25;100.00
50790;BME280;37287;47.554;7.844;2023-11-19T00:28:41;98093.13;;;5.27;100.00
50790;BME280;37287;47.554;7.844;2023-11-19T00:31:09;98090.88;;;5.29;100.00
50790;BME280;37287;47.554;7.844;2023-11-19T00:33:38;98087.09;;;5.30;100.00
50790;BME280;37287;47.554;7.844;2023-11-19T00:36:16;98077.13;;;5.31;100.00
50790;BME280;37287;47.554;7.844;2023-11-19T00:38:46;98074.44;;;5.31;100.00
50790;BME280;37287;47.554;7.844;2023-11-19T00:41:15;98067.16;;;5.31;100.00
50790;BME280;37287;47.554;7.844;2023-11-19T00:43:43;98073.31;;;5.32;100.00
50790;BME280;37287;47.554;7.844;2023-11-19T00:46:11;98075.53;;;5.30;100.00
50790;BME280;37287;47.554;7.844;2023-11-19T00:48:40;98079.72;;;5.27;100.00
50790;BME280;37287;47.554;7.844;2023-11-19T00:51:06;98076.22;;;5.27;100.00
50790;BME280;37287;47.554;7.844;2023-11-19T00:53:33;98076.22;;;5.27;100.00
50790;BME280;37287;47.554;7.844;2023-11-19T00:56:00;98077.31;;;5.26;100.00
50790;BME280;37287;47.554;7.844;2023-11-19T00:58:26;98078.13;;;5.26;100.00
50790;BME280;37287;47.554;7.844;2023-11-19T01:00:53;98079.72;;;5.27;100.00
50790;BME280;37287;47.554;7.844;2023-11-19T01:03:20;98064.72;;;5.26;100.00
50790;BME280;37287;47.554;7.844;2023-11-19T01:05:47;98079.72;;;5.27;100.00
50790;BME280;37287;47.554;7.844;2023-11-19T01:08:14;98073.66;;;5.30;100.00
50790;BME280;37287;47.554;7.844;2023-11-19T01:10:42;98069.84;;;5.31;100.00
50790;BME280;37287;47.554;7.844;2023-11-19T01:13:09;98072.53;;;5.31;100.00
50790;BME280;37287;47.554;7.844;2023-11-19T01:15:38;98056.53;;;5.35;100.00
50790;BME280;37287;47.554;7.844;2023-11-19T01:18:07;98060.47;;;5.38;100.00
50790;BME280;37287;47.554;7.844;2023-11-19T01:20:44;98048.28;;;5.40;100.00
50790;BME280;37287;47.554;7.844;2023-11-19T01:23:10;98047.59;;;5.43;100.00
50790;BME280;37287;47.554;7.844;2023-11-19T01:25:37;98041.88;;;5.45;100.00
50790;BME280;37287;47.554;7.844;2023-11-19T01:28:10;98039.63;;;5.47;100.00
50790;BME280;37287;47.554;7.844;2023-11-19T01:30:37;98010.88;;;5.47;100.00
50790;BME280;37287;47.554;7.844;2023-11-19T01:33:04;98030.59;;;5.51;100.00
50790;BME280;37287;47.554;7.844;2023-11-19T01:35:30;98010.75;;;5.56;100.00
50790;BME280;37287;47.554;7.844;2023-11-19T01:37:57;97995.06;;;5.58;100.00
50790;BME280;37287;47.554;7.844;2023-11-19T01:40:24;98002.03;;;5.59;100.00
50790;BME280;37287;47.554;7.844;2023-11-19T01:42:52;98000.56;;;5.62;100.00
50790;BME280;37287;47.554;7.844;2023-11-19T01:45:27;98002.13;;;5.63;100.00
50790;BME280;37287;47.554;7.844;2023-11-19T01:50:55;98009.94;;;5.68;100.00
50790;BME280;37287;47.554;7.844;2023-11-19T01:53:29;98003.13;;;5.71;100.00
50790;BME280;37287;47.554;7.844;2023-11-19T01:55:58;98008.47;;;5.71;100.00
50790;BME280;37287;47.554;7.844;2023-11-19T01:58:25;97996.63;;;5.72;100.00
50790;BME280;37287;47.554;7.844;2023-11-19T02:00:54;98004.69;;;5.72;100.00
50790;BME280;37287;47.554;7.844;2023-11-19T02:03:21;97999.75;;;5.74;100.00
50790;BME280;37287;47.554;7.844;2023-11-19T02:05:49;98012.50;;;5.77;100.00
50790;BME280;37287;47.554;7.844;2023-11-19T02:08:19;97995.25;;;5.78;100.00
50790;BME280;37287;47.554;7.844;2023-11-19T02:10:46;98000.28;;;5.79;100.00
50790;BME280;37287;47.554;7.844;2023-11-19T02:13:13;97990.34;;;5.80;100.00
50790;BME280;37287;47.554;7.844;2023-11-19T02:15:43;98005.66;;;5.79;100.00
50790;BME280;37287;47.554;7.844;2023-11-19T02:18:24;98019.91;;;5.80;100.00
50790;BME280;37287;47.554;7.844;2023-11-19T02:23:34;98030.97;;;5.78;100.00
50790;BME280;37287;47.554;7.844;2023-11-19T02:28:37;98034.78;;;5.77;100.00
50790;BME280;37287;47.554;7.844;2023-11-19T02:33:38;98024.81;;;5.78;100.00
50790;BME280;37287;47.554;7.844;2023-11-19T02:36:09;98026.72;;;5.77;100.00
50790;BME280;37287;47.554;7.844;2023-11-19T02:38:36;98018.66;;;5.77;100.00
50790;BME280;37287;47.554;7.844;2023-11-19T02:41:03;98024.81;;;5.78;100.00
50790;BME280;37287;47.554;7.844;2023-11-19T02:43:36;98026.38;;;5.79;100.00
50790;BME280;37287;47.554;7.844;2023-11-19T02:46:04;98019.78;;;5.76;100.00
50790;BME280;37287;47.554;7.844;2023-11-19T02:48:36;97995.59;;;5.76;100.00
50790;BME280;37287;47.554;7.844;2023-11-19T02:53:40;97997.94;;;5.78;100.00
50790;BME280;37287;47.554;7.844;2023-11-19T02:56:11;97992.69;;;5.81;100.00
50790;BME280;37287;47.554;7.844;2023-11-19T02:58:46;97993.13;;;5.83;100.00
50790;BME280;37287;47.554;7.844;2023-11-19T03:01:26;98002.75;;;5.84;100.00
50790;BME280;37287;47.554;7.844;2023-11-19T03:03:58;97994.34;;;5.86;100.00
50790;BME280;37287;47.554;7.844;2023-11-19T03:06:30;98001.72;;;5.89;100.00
50790;BME280;37287;47.554;7.844;2023-11-19T03:08:56;98000.59;;;5.90;100.00
50790;BME280;37287;47.554;7.844;2023-11-19T03:11:23;98005.19;;;5.90;100.00
50790;BME280;37287;47.554;7.844;2023-11-19T03:13:54;98004.41;;;5.89;100.00
50790;BME280;37287;47.554;7.844;2023-11-19T03:16:21;98002.53;;;5.90;100.00
50790;BME280;37287;47.554;7.844;2023-11-19T03:18:47;97995.22;;;5.90;100.00
50790;BME280;37287;47.554;7.844;2023-11-19T03:23:55;97984.47;;;5.90;100.00
50790;BME280;37287;47.554;7.844;2023-11-19T03:26:24;97998.34;;;5.92;100.00
50790;BME280;37287;47.554;7.844;2023-11-19T03:28:51;98002.59;;;5.93;100.00
50790;BME280;37287;47.554;7.844;2023-11-19T03:31:17;98013.34;;;5.93;100.00
50790;BME280;37287;47.554;7.844;2023-11-19T03:33:44;98020.63;;;5.93;100.00
50790;BME280;37287;47.554;7.844;2023-11-19T03:36:13;98022.97;;;5.94;100.00
50790;BME280;37287;47.554;7.844;2023-11-19T03:38:40;98015.34;;;5.96;100.00
50790;BME280;37287;47.554;7.844;2023-11-19T03:41:14;98014.56;;;5.96;100.00
50790;BME280;37287;47.554;7.844;2023-11-19T03:43:41;98014.56;;;5.96;100.00
50790;BME280;37287;47.554;7.844;2023-11-19T03:46:20;98016.50;;;5.95;100.00
50790;BME280;37287;47.554;7.844;2023-11-19T03:48:51;98010.78;;;5.97;100.00
50790;BME280;37287;47.554;7.844;2023-11-19T03:53:58;98016.03;;;5.93;100.00
50790;BME280;37287;47.554;7.844;2023-11-19T03:56:25;98016.94;;;5.97;100.00
50790;BME280;37287;47.554;7.844;2023-11-19T03:58:53;98023.41;;;5.96;100.00
50790;BME280;37287;47.554;7.844;2023-11-19T04:01:24;98008.19;;;6.00;100.00
50790;BME280;37287;47.554;7.844;2023-11-19T04:03:51;98023.22;;;6.01;100.00
50790;BME280;37287;47.554;7.844;2023-11-19T04:06:18;98017.72;;;5.98;100.00
50790;BME280;37287;47.554;7.844;2023-11-19T04:08:46;98022.31;;;5.97;100.00
50790;BME280;37287;47.554;7.844;2023-11-19T04:11:14;98017.72;;;5.98;100.00
50790;BME280;37287;47.554;7.844;2023-11-19T04:13:41;98023.91;;;5.98;100.00
50790;BME280;37287;47.554;7.844;2023-11-19T04:16:09;98027.81;;;6.01;100.00
50790;BME280;37287;47.554;7.844;2023-11-19T04:18:36;98027.47;;;6.02;100.00
50790;BME280;37287;47.554;7.844;2023-11-19T04:21:08;98030.16;;;6.02;100.00
50790;BME280;37287;47.554;7.844;2023-11-19T04:23:36;98039.44;;;6.05;100.00
50790;BME280;37287;47.554;7.844;2023-11-19T04:26:04;98032.16;;;6.06;100.00
50790;BME280;37287;47.554;7.844;2023-11-19T04:28:33;98044.81;;;6.05;100.00
50790;BME280;37287;47.554;7.844;2023-11-19T04:31:02;98046.72;;;6.05;100.00
50790;BME280;37287;47.554;7.844;2023-11-19T04:33:30;98048.28;;;6.06;100.00
50790;BME280;37287;47.554;7.844;2023-11-19T04:35:56;98035.28;;;6.08;100.00
50790;BME280;37287;47.554;7.844;2023-11-19T04:38:25;98038.84;;;6.12;100.00
50790;BME280;37287;47.554;7.844;2023-11-19T04:40:53;98039.66;;;6.12;100.00
50790;BME280;37287;47.554;7.844;2023-11-19T04:43:19;98043.53;;;6.15;100.00
50790;BME280;37287;47.554;7.844;2023-11-19T04:45:46;98044.69;;;6.14;100.00
50790;BME280;37287;47.554;7.844;2023-11-19T04:48:15;98025.88;;;6.14;100.00
50790;BME280;37287;47.554;7.844;2023-11-19T04:50:44;98022.81;;;6.15;100.00
50790;BME280;37287;47.554;7.844;2023-11-19T04:53:11;98016.00;;;6.18;100.00
50790;BME280;37287;47.554;7.844;2023-11-19T04:55:39;98027.16;;;6.20;100.00
50790;BME280;37287;47.554;7.844;2023-11-19T04:58:06;98024.13;;;6.22;100.00
50790;BME280;37287;47.554;7.844;2023-11-19T05:00:33;98024.47;;;6.20;100.00
50790;BME280;37287;47.554;7.844;2023-11-19T05:02:59;98034.88;;;6.22;100.00
50790;BME280;37287;47.554;7.844;2023-11-19T05:05:26;98050.69;;;6.23;100.00
50790;BME280;37287;47.554;7.844;2023-11-19T05:10:38;98046.44;;;6.22;100.00
50790;BME280;37287;47.554;7.844;2023-11-19T05:13:04;98043.06;;;6.25;100.00
50790;BME280;37287;47.554;7.844;2023-11-19T05:15:33;98033.19;;;6.29;100.00
50790;BME280;37287;47.554;7.844;2023-11-19T05:20:29;98032.94;;;6.34;100.00
50790;BME280;37287;47.554;7.844;2023-11-19T05:22:56;98046.28;;;6.31;100.00
50790;BME280;37287;47.554;7.844;2023-11-19T05:25:24;98043.50;;;6.27;100.00
50790;BME280;37287;47.554;7.844;2023-11-19T05:30:21;98040.81;;;6.27;100.00
50790;BME280;37287;47.554;7.844;2023-11-19T05:32:49;98032.41;;;6.29;100.00
50790;BME280;37287;47.554;7.844;2023-11-19T05:35:17;98033.19;;;6.29;100.00
50790;BME280;37287;47.554;7.844;2023-11-19T05:37:44;98030.94;;;6.31;100.00
50790;BME280;37287;47.554;7.844;2023-11-19T05:40:10;98037.53;;;6.34;100.00
50790;BME280;37287;47.554;7.844;2023-11-19T05:42:47;98034.84;;;6.34;100.00
50790;BME280;37287;47.554;7.844;2023-11-19T05:45:13;98031.03;;;6.35;100.00
50790;BME280;37287;47.554;7.844;2023-11-19T05:47:41;98026.44;;;6.35;100.00
50790;BME280;37287;47.554;7.844;2023-11-19T05:50:08;98031.47;;;6.37;100.00
50790;BME280;37287;47.554;7.844;2023-11-19T05:52:37;98050.28;;;6.37;100.00
50790;BME280;37287;47.554;7.844;2023-11-19T05:55:04;98041.09;;;6.38;100.00
50790;BME280;37287;47.554;7.844;2023-11-19T05:57:34;98029.56;;;6.37;100.00
50790;BME280;37287;47.554;7.844;2023-11-19T06:00:24;98033.81;;;6.39;100.00
50790;BME280;37287;47.554;7.844;2023-11-19T06:02:52;98039.19;;;6.39;100.00
50790;BME280;37287;47.554;7.844;2023-11-19T06:05:23;98045.03;;;6.41;100.00
50790;BME280;37287;47.554;7.844;2023-11-19T06:07:50;98045.78;;;6.41;100.00
50790;BME280;37287;47.554;7.844;2023-11-19T06:10:17;98042.00;;;6.42;100.00
50790;BME280;37287;47.554;7.844;2023-11-19T06:12:44;98048.13;;;6.43;100.00
50790;BME280;37287;47.554;7.844;2023-11-19T06:15:12;98036.69;;;6.46;100.00
50790;BME280;37287;47.554;7.844;2023-11-19T06:17:39;98044.75;;;6.46;100.00
50790;BME280;37287;47.554;7.844;2023-11-19T06:20:08;98045.97;;;6.48;100.00
50790;BME280;37287;47.554;7.844;2023-11-19T06:22:35;98044.41;;;6.47;100.00
50790;BME280;37287;47.554;7.844;2023-11-19T06:25:02;98048.31;;;6.50;100.00
50790;BME280;37287;47.554;7.844;2023-11-19T06:27:34;98035.06;;;6.57;100.00
50790;BME280;37287;47.554;7.844;2023-11-19T06:30:01;98038.91;;;6.56;100.00
50790;BME280;37287;47.554;7.844;2023-11-19T06:32:28;98044.00;;;6.61;100.00
50790;BME280;37287;47.554;7.844;2023-11-19T06:34:59;98038.28;;;6.63;100.00
50790;BME280;37287;47.554;7.844;2023-11-19T06:37:26;98041.06;;;6.66;100.00
50790;BME280;37287;47.554;7.844;2023-11-19T06:39:53;98040.03;;;6.71;100.00
50790;BME280;37287;47.554;7.844;2023-11-19T06:42:25;98040.38;;;6.69;100.00
50790;BME280;37287;47.554;7.844;2023-11-19T06:44:54;98045.06;;;6.72;100.00
50790;BME280;37287;47.554;7.844;2023-11-19T06:47:26;98039.88;;;6.80;100.00
50790;BME280;37287;47.554;7.844;2023-11-19T06:49:58;98042.41;;;6.88;100.00
50790;BME280;37287;47.554;7.844;2023-11-19T06:52:25;98039.03;;;6.92;100.00
50790;BME280;37287;47.554;7.844;2023-11-19T06:54:52;98047.09;;;6.92;100.00
50790;BME280;37287;47.554;7.844;2023-11-19T06:57:18;98048.56;;;6.89;100.00
50790;BME280;37287;47.554;7.844;2023-11-19T06:59:46;98048.81;;;6.84;100.00
50790;BME280;37287;47.554;7.844;2023-11-19T07:02:13;98047.59;;;6.81;100.00
50790;BME280;37287;47.554;7.844;2023-11-19T07:04:40;98041.09;;;6.82;100.00
50790;BME280;37287;47.554;7.844;2023-11-19T07:07:07;98044.56;;;6.83;100.00
50790;BME280;37287;47.554;7.844;2023-11-19T07:09:34;98038.03;;;6.84;100.00
50790;BME280;37287;47.554;7.844;2023-11-19T07:12:00;98034.59;;;6.83;100.00
50790;BME280;37287;47.554;7.844;2023-11-19T07:14:28;98041.53;;;6.84;100.00
50790;BME280;37287;47.554;7.844;2023-11-19T07:16:56;98054.19;;;6.84;100.00
50790;BME280;37287;47.554;7.844;2023-11-19T07:19:23;98059.94;;;6.82;100.00
50790;BME280;37287;47.554;7.844;2023-11-19T07:21:50;98057.59;;;6.81;100.00
50790;BME280;37287;47.554;7.844;2023-11-19T07:24:16;98062.25;;;6.84;100.00
50790;BME280;37287;47.554;7.844;2023-11-19T07:26:44;98057.22;;;6.82;100.00
50790;BME280;37287;47.554;7.844;2023-11-19T07:29:11;98062.25;;;6.84;100.00
50790;BME280;37287;47.554;7.844;2023-11-19T07:31:55;98063.41;;;6.83;100.00
50790;BME280;37287;47.554;7.844;2023-11-19T07:34:22;98061.50;;;6.83;100.00
50790;BME280;37287;47.554;7.844;2023-11-19T07:36:52;98067.66;;;6.84;100.00
50790;BME280;37287;47.554;7.844;2023-11-19T07:39:19;98071.50;;;6.83;100.00
50790;BME280;37287;47.554;7.844;2023-11-19T07:41:47;98065.31;;;6.82;100.00
50790;BME280;37287;47.554;7.844;2023-11-19T07:44:15;98071.13;;;6.84;100.00
50790;BME280;37287;47.554;7.844;2023-11-19T07:46:42;98073.84;;;6.84;100.00
50790;BME280;37287;47.554;7.844;2023-11-19T07:49:09;98080.69;;;6.82;100.00
50790;BME280;37287;47.554;7.844;2023-11-19T07:51:38;98067.06;;;6.91;100.00
50790;BME280;37287;47.554;7.844;2023-11-19T07:54:05;98066.63;;;6.88;100.00
50790;BME280;37287;47.554;7.844;2023-11-19T07:56:33;98063.59;;;6.90;100.00
50790;BME280;37287;47.554;7.844;2023-11-19T07:59:03;98076.34;;;6.93;100.00
50790;BME280;37287;47.554;7.844;2023-11-19T08:01:32;98074.53;;;6.97;100.00
50790;BME280;37287;47.554;7.844;2023-11-19T08:03:59;98087.31;;;7.00;100.00
50790;BME280;37287;47.554;7.844;2023-11-19T08:06:26;98094.59;;;7.00;100.00
50790;BME280;37287;47.554;7.844;2023-11-19T08:08:53;98088.94;;;7.05;100.00
50790;BME280;37287;47.554;7.844;2023-11-19T08:11:19;98085.91;;;7.06;100.00
50790;BME280;37287;47.554;7.844;2023-11-19T08:13:47;98084.94;;;7.15;100.00
50790;BME280;37287;47.554;7.844;2023-11-19T08:16:14;98083.13;;;7.19;100.00
50790;BME280;37287;47.554;7.844;2023-11-19T08:18:43;98082.88;;;7.24;100.00
50790;BME280;37287;47.554;7.844;2023-11-19T08:21:11;98087.28;;;7.32;100.00
50790;BME280;37287;47.554;7.844;2023-11-19T08:23:38;98082.88;;;7.40;100.00
50790;BME280;37287;47.554;7.844;2023-11-19T08:26:05;98088.41;;;7.47;100.00
50790;BME280;37287;47.554;7.844;2023-11-19T08:28:33;98078.16;;;7.53;100.00
50790;BME280;37287;47.554;7.844;2023-11-19T08:31:04;98083.59;;;7.72;100.00
50790;BME280;37287;47.554;7.844;2023-11-19T08:33:33;98084.19;;;7.82;100.00
50790;BME280;37287;47.554;7.844;2023-11-19T08:36:01;98089.81;;;7.92;100.00
50790;BME280;37287;47.554;7.844;2023-11-19T08:38:30;98085.03;;;7.86;100.00
50790;BME280;37287;47.554;7.844;2023-11-19T08:40:57;98093.63;;;7.91;100.00
50790;BME280;37287;47.554;7.844;2023-11-19T08:43:40;98098.66;;;8.09;100.00
50790;BME280;37287;47.554;7.844;2023-11-19T08:46:11;98100.41;;;8.21;100.00
50790;BME280;37287;47.554;7.844;2023-11-19T08:48:38;98096.38;;;8.31;100.00
50790;BME280;37287;47.554;7.844;2023-11-19T08:51:06;98096.59;;;8.41;100.00
50790;BME280;37287;47.554;7.844;2023-11-19T08:53:33;98103.66;;;8.46;100.00
50790;BME280;37287;47.554;7.844;2023-11-19T08:56:00;98101.03;;;8.50;100.00
50790;BME280;37287;47.554;7.844;2023-11-19T08:58:31;98103.03;;;8.53;100.00
50790;BME280;37287;47.554;7.844;2023-11-19T09:00:58;98097.63;;;8.53;100.00
50790;BME280;37287;47.554;7.844;2023-11-19T09:03:25;98096.63;;;8.61;100.00
50790;BME280;37287;47.554;7.844;2023-11-19T09:05:53;98098.75;;;8.71;100.00
50790;BME280;37287;47.554;7.844;2023-11-19T09:08:20;98088.84;;;8.79;100.00
50790;BME280;37287;47.554;7.844;2023-11-19T09:10:47;98088.91;;;8.83;100.00
50790;BME280;37287;47.554;7.844;2023-11-19T09:13:15;98085.09;;;8.84;100.00
50790;BME280;37287;47.554;7.844;2023-11-19T09:15:42;98090.25;;;8.92;100.00
50790;BME280;37287;47.554;7.844;2023-11-19T09:18:09;98090.09;;;9.05;100.00
50790;BME280;37287;47.554;7.844;2023-11-19T09:20:36;98102.38;;;9.02;100.00
50790;BME280;37287;47.554;7.844;2023-11-19T09:23:05;98106.22;;;9.01;100.00
50790;BME280;37287;47.554;7.844;2023-11-19T09:25:33;98101.16;;;9.00;100.00
50790;BME280;37287;47.554;7.844;2023-11-19T09:28:02;98089.75;;;9.10;100.00
50790;BME280;37287;47.554;7.844;2023-11-19T09:30:29;98080.91;;;9.09;100.00
50790;BME280;37287;47.554;7.844;2023-11-19T09:32:57;98093.75;;;9.16;100.00
50790;BME280;37287;47.554;7.844;2023-11-19T09:35:35;98096.56;;;9.23;100.00
50790;BME280;37287;47.554;7.844;2023-11-19T09:38:02;98097.41;;;9.27;100.00
50790;BME280;37287;47.554;7.844;2023-11-19T09:40:31;98093.66;;;9.36;100.00
50790;BME280;37287;47.554;7.844;2023-11-19T09:42:58;98086.38;;;9.40;100.00
50790;BME280;37287;47.554;7.844;2023-11-19T09:45:27;98088.78;;;9.45;100.00
50790;BME280;37287;47.554;7.844;2023-11-19T09:47:55;98086.19;;;9.52;100.00
50790;BME280;37287;47.554;7.844;2023-11-19T09:50:24;98098.09;;;9.48;100.00
50790;BME280;37287;47.554;7.844;2023-11-19T09:52:50;98094.59;;;9.47;100.00
50790;BME280;37287;47.554;7.844;2023-11-19T09:55:17;98103.88;;;9.46;100.00
50790;BME280;37287;47.554;7.844;2023-11-19T09:57:48;98100.81;;;9.48;100.00
50790;BME280;37287;47.554;7.844;2023-11-19T10:00:16;98111.03;;;9.35;100.00
50790;BME280;37287;47.554;7.844;2023-11-19T10:02:45;98122.19;;;9.33;100.00
50790;BME280;37287;47.554;7.844;2023-11-19T10:05:15;98122.97;;;9.34;100.00
50790;BME280;37287;47.554;7.844;2023-11-19T10:07:42;98119.97;;;9.39;100.00
50790;BME280;37287;47.554;7.844;2023-11-19T10:10:12;98111.91;;;9.42;100.00
50790;BME280;37287;47.554;7.844;2023-11-19T10:12:46;98100.81;;;9.48;100.00
50790;BME280;37287;47.554;7.844;2023-11-19T10:15:24;98087.75;;;9.53;100.00
50790;BME280;37287;47.554;7.844;2023-11-19T10:17:57;98098.69;;;9.60;100.00
50790;BME280;37287;47.554;7.844;2023-11-19T10:20:24;98101.19;;;9.73;100.00
50790;BME280;37287;47.554;7.844;2023-11-19T10:22:54;98099.78;;;9.83;100.00
50790;BME280;37287;47.554;7.844;2023-11-19T10:25:25;98108.00;;;9.90;100.00
50790;BME280;37287;47.554;7.844;2023-11-19T10:27:53;98110.06;;;10.00;100.00
50790;BME280;37287;47.554;7.844;2023-11-19T10:30:24;98106.25;;;10.05;100.00
50790;BME280;37287;47.554;7.844;2023-11-19T10:33:10;98101.31;;;10.10;100.00
50790;BME280;37287;47.554;7.844;2023-11-19T10:35:52;98099.06;;;10.16;100.00
50790;BME280;37287;47.554;7.844;2023-11-19T10:38:26;98098.00;;;10.24;100.00
50790;BME280;37287;47.554;7.844;2023-11-19T10:40:53;98098.78;;;10.25;100.00
50790;BME280;37287;47.554;7.844;2023-11-19T10:43:23;98088.78;;;10.29;100.00
50790;BME280;37287;47.554;7.844;2023-11-19T10:45:50;98086.13;;;10.32;100.00
50790;BME280;37287;47.554;7.844;2023-11-19T10:48:17;98084.28;;;10.37;100.00
50790;BME280;37287;47.554;7.844;2023-11-19T10:50:45;98081.59;;;10.40;100.00
50790;BME280;37287;47.554;7.844;2023-11-19T10:53:12;98078.88;;;10.40;100.00
50790;BME280;37287;47.554;7.844;2023-11-19T10:55:47;98069.31;;;10.46;100.00
50790;BME280;37287;47.554;7.844;2023-11-19T10:58:22;98066.69;;;10.54;100.00
50790;BME280;37287;47.554;7.844;2023-11-19T11:00:54;98057.06;;;10.60;100.00
50790;BME280;37287;47.554;7.844;2023-11-19T11:03:25;98052.09;;;10.65;100.00
50790;BME280;37287;47.554;7.844;2023-11-19T11:05:53;98049.44;;;10.73;100.00
50790;BME280;37287;47.554;7.844;2023-11-19T11:08:20;98049.50;;;10.76;100.00
50790;BME280;37287;47.554;7.844;2023-11-19T11:10:56;98038.31;;;10.81;100.00
50790;BME280;37287;47.554;7.844;2023-11-19T11:13:28;98037.97;;;10.87;100.00
50790;BME280;37287;47.554;7.844;2023-11-19T11:15:56;98039.19;;;10.89;100.00
50790;BME280;37287;47.554;7.844;2023-11-19T11:18:27;98034.53;;;10.90;100.00
50790;BME280;37287;47.554;7.844;2023-11-19T11:21:13;98041.53;;;10.94;100.00
50790;BME280;37287;47.554;7.844;2023-11-19T11:27:02;98036.53;;;10.96;100.00
50790;BME280;37287;47.554;7.844;2023-11-19T11:32:28;98042.78;;;11.04;100.00
50790;BME280;37287;47.554;7.844;2023-11-19T11:35:24;98038.91;;;11.05;100.00
50790;BME280;37287;47.554;7.844;2023-11-19T11:38:07;98044.38;;;11.09;100.00
50790;BME280;37287;47.554;7.844;2023-11-19T11:40:35;98039.34;;;11.11;100.00
50790;BME280;37287;47.554;7.844;2023-11-19T11:43:03;98038.97;;;11.12;100.00
50790;BME280;37287;47.554;7.844;2023-11-19T11:45:36;98038.22;;;11.15;100.00
50790;BME280;37287;47.554;7.844;2023-11-19T11:48:15;98030.91;;;11.19;100.00
50790;BME280;37287;47.554;7.844;2023-11-19T11:50:56;98039.06;;;11.23;100.00
50790;BME280;37287;47.554;7.844;2023-11-19T11:53:24;98019.34;;;11.26;100.00
50790;BME280;37287;47.554;7.844;2023-11-19T11:55:56;98018.97;;;11.28;100.00
50790;BME280;37287;47.554;7.844;2023-11-19T11:58:29;98010.81;;;11.28;100.00
50790;BME280;37287;47.554;7.844;2023-11-19T12:00:58;98009.69;;;11.29;100.00
50790;BME280;37287;47.554;7.844;2023-11-19T12:03:28;98012.38;;;11.29;100.00
50790;BME280;37287;47.554;7.844;2023-11-19T12:05:57;98010.06;;;11.31;100.00
50790;BME280;37287;47.554;7.844;2023-11-19T12:08:26;98000.41;;;11.33;100.00
50790;BME280;37287;47.554;7.844;2023-11-19T12:10:57;97998.50;;;11.34;100.00
50790;BME280;37287;47.554;7.844;2023-11-19T12:13:46;98002.75;;;11.35;100.00
50790;BME280;37287;47.554;7.844;2023-11-19T12:16:15;98014.00;;;11.37;100.00
50790;BME280;37287;47.554;7.844;2023-11-19T12:18:42;98007.44;;;11.38;100.00
50790;BME280;37287;47.554;7.844;2023-11-19T12:21:09;98016.34;;;11.39;100.00
50790;BME280;37287;47.554;7.844;2023-11-19T12:23:45;98012.06;;;11.38;100.00
50790;BME280;37287;47.554;7.844;2023-11-19T12:26:33;98014.38;;;11.35;100.00
50790;BME280;37287;47.554;7.844;2023-11-19T12:29:08;98017.47;;;11.34;100.00
50790;BME280;37287;47.554;7.844;2023-11-19T12:31:36;98026.75;;;11.36;100.00
50790;BME280;37287;47.554;7.844;2023-11-19T12:34:07;98025.63;;;11.38;100.00
50790;BME280;37287;47.554;7.844;2023-11-19T12:36:37;98019.41;;;11.37;100.00
50790;BME280;37287;47.554;7.844;2023-11-19T12:39:06;98016.66;;;11.33;100.00
50790;BME280;37287;47.554;7.844;2023-11-19T12:41:48;98011.25;;;11.33;100.00
50790;BME280;37287;47.554;7.844;2023-11-19T12:44:19;98010.47;;;11.33;100.00
50790;BME280;37287;47.554;7.844;2023-11-19T12:47:02;98010.47;;;11.33;100.00
50790;BME280;37287;47.554;7.844;2023-11-19T12:49:38;98014.75;;;11.34;100.00
50790;BME280;37287;47.554;7.844;2023-11-19T12:52:15;98012.81;;;11.34;100.00
50790;BME280;37287;47.554;7.844;2023-11-19T12:54:48;98012.09;;;11.41;100.00
50790;BME280;37287;47.554;7.844;2023-11-19T12:57:15;98004.72;;;11.38;100.00
50790;BME280;37287;47.554;7.844;2023-11-19T12:59:42;98004.34;;;11.40;100.00
50790;BME280;37287;47.554;7.844;2023-11-19T13:02:09;98003.97;;;11.41;100.00
50790;BME280;37287;47.554;7.844;2023-11-19T13:04:38;97995.06;;;11.44;100.00
50790;BME280;37287;47.554;7.844;2023-11-19T13:07:05;97998.56;;;11.48;100.00
50790;BME280;37287;47.554;7.844;2023-11-19T13:09:34;97996.28;;;11.58;100.00
50790;BME280;37287;47.554;7.844;2023-11-19T13:12:14;97993.25;;;11.70;100.00
50790;BME280;37287;47.554;7.844;2023-11-19T13:14:43;97988.28;;;11.83;100.00
50790;BME280;37287;47.554;7.844;2023-11-19T13:17:15;97987.56;;;11.93;100.00
50790;BME280;37287;47.554;7.844;2023-11-19T13:19:42;98000.03;;;11.98;100.00
50790;BME280;37287;47.554;7.844;2023-11-19T13:22:10;98001.97;;;12.01;100.00
50790;BME280;37287;47.554;7.844;2023-11-19T13:24:37;98003.13;;;12.00;100.00
50790;BME280;37287;47.554;7.844;2023-11-19T13:27:04;98000.81;;;12.02;100.00
50790;BME280;37287;47.554;7.844;2023-11-19T13:29:32;97994.97;;;11.96;100.00
50790;BME280;37287;47.554;7.844;2023-11-19T13:32:00;97998.84;;;11.95;100.00
50790;BME280;37287;47.554;7.844;2023-11-19T13:34:29;98009.69;;;11.95;100.00
50790;BME280;37287;47.554;7.844;2023-11-19T13:37:00;98008.94;;;11.95;100.00
50790;BME280;37287;47.554;7.844;2023-11-19T13:39:27;98006.97;;;11.95;100.00
50790;BME280;37287;47.554;7.844;2023-11-19T13:41:53;98012.41;;;11.95;100.00
50790;BME280;37287;47.554;7.844;2023-11-19T13:44:38;98006.97;;;11.95;100.00